sensor_id;sensor_type;location;lat;lon;timestamp;P1;durP1;ratioP1;P2;durP2;ratioP2
19887;SDS011;10106;51.332;12.336;2022-11-20T00:01:22;24.10;;;7.20;;
19887;SDS011;10106;51.332;12.336;2022-11-20T00:03:53;10.87;;;6.03;;
19887;SDS011;10106;51.332;12.336;2022-11-20T00:06:20;11.53;;;6.80;;
19887;SDS011;10106;51.332;12.336;2022-11-20T00:08:47;13.30;;;7.10;;
19887;SDS011;10106;51.332;12.336;2022-11-20T00:11:14;14.77;;;4.93;;
19887;SDS011;10106;51.332;12.336;2022-11-20T00:13:45;15.97;;;6.20;;
19887;SDS011;10106;51.332;12.336;2022-11-20T00:16:14;17.87;;;6.10;;
19887;SDS011;10106;51.332;12.336;2022-11-20T00:18:41;14.90;;;5.87;;
19887;SDS011;10106;51.332;12.336;2022-11-20T00:21:09;16.67;;;7.37;;
19887;SDS011;10106;51.332;12.336;2022-11-20T00:23:37;16.50;;;5.37;;
19887;SDS011;10106;51.332;12.336;2022-11-20T00:26:06;16.80;;;6.47;;
19887;SDS011;10106;51.332;12.336;2022-11-20T00:28:34;30.87;;;5.20;;
19887;SDS011;10106;51.332;12.336;2022-11-20T00:31:10;15.37;;;7.00;;
19887;SDS011;10106;51.332;12.336;2022-11-20T00:33:37;22.50;;;7.37;;
19887;SDS011;10106;51.332;12.336;2022-11-20T00:36:04;15.60;;;5.37;;
19887;SDS011;10106;51.332;12.336;2022-11-20T00:38:34;13.17;;;6.50;;
19887;SDS011;10106;51.332;12.336;2022-11-20T00:41:00;13.53;;;5.67;;
19887;SDS011;10106;51.332;12.336;2022-11-20T00:43:27;14.77;;;6.00;;
19887;SDS011;10106;51.332;12.336;2022-11-20T00:46:00;29.50;;;6.73;;
19887;SDS011;10106;51.332;12.336;2022-11-20T00:48:28;12.00;;;8.27;;
19887;SDS011;10106;51.332;12.336;2022-11-20T00:50:53;13.63;;;7.70;;
19887;SDS011;10106;51.332;12.336;2022-11-20T00:53:20;12.67;;;7.20;;
19887;SDS011;10106;51.332;12.336;2022-11-20T00:55:52;15.23;;;8.00;;
19887;SDS011;10106;51.332;12.336;2022-11-20T00:58:19;20.60;;;6.90;;
19887;SDS011;10106;51.332;12.336;2022-11-20T01:00:45;14.07;;;7.30;;
19887;SDS011;10106;51.332;12.336;2022-11-20T01:03:11;14.00;;;6.50;;
19887;SDS011;10106;51.332;12.336;2022-11-20T01:05:36;44.47;;;7.10;;
19887;SDS011;10106;51.332;12.336;2022-11-20T01:08:02;12.50;;;5.50;;
19887;SDS011;10106;51.332;12.336;2022-11-20T01:10:28;30.43;;;5.17;;
19887;SDS011;10106;51.332;12.336;2022-11-20T01:12:54;10.27;;;7.67;;
19887;SDS011;10106;51.332;12.336;2022-11-20T01:15:38;20.83;;;5.53;;
19887;SDS011;10106;51.332;12.336;2022-11-20T01:18:04;11.83;;;5.50;;
19887;SDS011;10106;51.332;12.336;2022-11-20T01:20:33;29.67;;;8.67;;
19887;SDS011;10106;51.332;12.336;2022-11-20T01:23:04;17.70;;;6.93;;
19887;SDS011;10106;51.332;12.336;2022-11-20T01:25:30;10.37;;;5.43;;
19887;SDS011;10106;51.332;12.336;2022-11-20T01:27:55;10.10;;;7.00;;
19887;SDS011;10106;51.332;12.336;2022-11-20T01:30:21;7.17;;;5.60;;
19887;SDS011;10106;51.332;12.336;2022-11-20T01:32:47;19.43;;;6.20;;
19887;SDS011;10106;51.332;12.336;2022-11-20T01:35:12;16.90;;;6.90;;
19887;SDS011;10106;51.332;12.336;2022-11-20T01:37:38;17.93;;;4.77;;
19887;SDS011;10106;51.332;12.336;2022-11-20T01:40:04;11.83;;;7.10;;
19887;SDS011;10106;51.332;12.336;2022-11-20T01:42:30;17.53;;;7.70;;
19887;SDS011;10106;51.332;12.336;2022-11-20T01:48:18;6.10;;;3.50;;
19887;SDS011;10106;51.332;12.336;2022-11-20T01:50:47;10.63;;;5.40;;
19887;SDS011;10106;51.332;12.336;2022-11-20T01:53:13;14.83;;;5.03;;
19887;SDS011;10106;51.332;12.336;2022-11-20T01:55:44;16.57;;;5.10;;
19887;SDS011;10106;51.332;12.336;2022-11-20T01:58:13;24.98;;;10.35;;
19887;SDS011;10106;51.332;12.336;2022-11-20T02:00:40;24.90;;;8.40;;
19887;SDS011;10106;51.332;12.336;2022-11-20T02:03:09;25.05;;;10.52;;
19887;SDS011;10106;51.332;12.336;2022-11-20T02:06:02;26.33;;;10.43;;
19887;SDS011;10106;51.332;12.336;2022-11-20T02:08:33;25.70;;;10.70;;
19887;SDS011;10106;51.332;12.336;2022-11-20T02:11:00;21.60;;;9.95;;
19887;SDS011;10106;51.332;12.336;2022-11-20T02:13:26;25.37;;;11.80;;
19887;SDS011;10106;51.332;12.336;2022-11-20T02:16:11;17.52;;;9.35;;
19887;SDS011;10106;51.332;12.336;2022-11-20T02:18:42;25.08;;;10.15;;
19887;SDS011;10106;51.332;12.336;2022-11-20T02:26:30;21.60;;;9.38;;
19887;SDS011;10106;51.332;12.336;2022-11-20T02:28:58;23.35;;;9.95;;
19887;SDS011;10106;51.332;12.336;2022-11-20T02:31:25;25.95;;;10.80;;
19887;SDS011;10106;51.332;12.336;2022-11-20T02:33:57;25.00;;;10.48;;
19887;SDS011;10106;51.332;12.336;2022-11-20T02:36:23;26.65;;;11.63;;
19887;SDS011;10106;51.332;12.336;2022-11-20T02:38:52;25.43;;;11.30;;
19887;SDS011;10106;51.332;12.336;2022-11-20T02:41:18;26.40;;;11.70;;
19887;SDS011;10106;51.332;12.336;2022-11-20T02:43:44;29.15;;;11.52;;
19887;SDS011;10106;51.332;12.336;2022-11-20T02:46:09;25.10;;;11.13;;
19887;SDS011;10106;51.332;12.336;2022-11-20T02:48:35;24.57;;;11.50;;
19887;SDS011;10106;51.332;12.336;2022-11-20T02:51:01;26.35;;;11.50;;
19887;SDS011;10106;51.332;12.336;2022-11-20T02:53:27;26.23;;;11.13;;
19887;SDS011;10106;51.332;12.336;2022-11-20T02:55:53;27.70;;;11.60;;
19887;SDS011;10106;51.332;12.336;2022-11-20T02:58:19;28.00;;;11.90;;
19887;SDS011;10106;51.332;12.336;2022-11-20T03:00:44;25.77;;;11.75;;
19887;SDS011;10106;51.332;12.336;2022-11-20T03:03:10;24.87;;;10.97;;
19887;SDS011;10106;51.332;12.336;2022-11-20T03:05:36;26.30;;;11.77;;
19887;SDS011;10106;51.332;12.336;2022-11-20T03:08:01;30.13;;;11.90;;
19887;SDS011;10106;51.332;12.336;2022-11-20T03:10:27;31.15;;;11.85;;
19887;SDS011;10106;51.332;12.336;2022-11-20T03:12:56;29.83;;;11.70;;
19887;SDS011;10106;51.332;12.336;2022-11-20T03:15:24;27.55;;;11.68;;
19887;SDS011;10106;51.332;12.336;2022-11-20T03:17:53;28.15;;;12.73;;
19887;SDS011;10106;51.332;12.336;2022-11-20T03:20:20;27.20;;;11.93;;
19887;SDS011;10106;51.332;12.336;2022-11-20T03:22:45;29.23;;;12.17;;
19887;SDS011;10106;51.332;12.336;2022-11-20T03:25:11;32.75;;;12.15;;
19887;SDS011;10106;51.332;12.336;2022-11-20T03:27:36;25.57;;;11.40;;
19887;SDS011;10106;51.332;12.336;2022-11-20T03:30:02;30.05;;;13.32;;
19887;SDS011;10106;51.332;12.336;2022-11-20T03:32:29;31.35;;;12.32;;
19887;SDS011;10106;51.332;12.336;2022-11-20T03:34:54;33.90;;;13.77;;
19887;SDS011;10106;51.332;12.336;2022-11-20T03:37:20;29.07;;;11.70;;
19887;SDS011;10106;51.332;12.336;2022-11-20T03:39:46;25.37;;;11.57;;
19887;SDS011;10106;51.332;12.336;2022-11-20T03:42:11;30.15;;;12.95;;
19887;SDS011;10106;51.332;12.336;2022-11-20T03:44:56;25.65;;;12.32;;
19887;SDS011;10106;51.332;12.336;2022-11-20T03:47:21;33.53;;;13.52;;
19887;SDS011;10106;51.332;12.336;2022-11-20T03:49:47;35.00;;;12.93;;
19887;SDS011;10106;51.332;12.336;2022-11-20T03:52:13;30.05;;;12.55;;
19887;SDS011;10106;51.332;12.336;2022-11-20T03:54:38;25.70;;;11.73;;
19887;SDS011;10106;51.332;12.336;2022-11-20T03:57:04;29.27;;;12.20;;
19887;SDS011;10106;51.332;12.336;2022-11-20T03:59:30;24.50;;;11.63;;
19887;SDS011;10106;51.332;12.336;2022-11-20T04:01:55;33.42;;;12.55;;
19887;SDS011;10106;51.332;12.336;2022-11-20T04:04:21;31.17;;;12.20;;
19887;SDS011;10106;51.332;12.336;2022-11-20T04:06:47;30.75;;;12.88;;
19887;SDS011;10106;51.332;12.336;2022-11-20T04:09:12;33.70;;;11.73;;
19887;SDS011;10106;51.332;12.336;2022-11-20T04:11:39;29.50;;;11.13;;
19887;SDS011;10106;51.332;12.336;2022-11-20T04:14:06;25.98;;;11.30;;
19887;SDS011;10106;51.332;12.336;2022-11-20T04:16:37;24.85;;;11.70;;
19887;SDS011;10106;51.332;12.336;2022-11-20T04:19:04;26.40;;;11.53;;
19887;SDS011;10106;51.332;12.336;2022-11-20T04:21:31;25.63;;;12.25;;
19887;SDS011;10106;51.332;12.336;2022-11-20T04:23:57;32.35;;;12.23;;
19887;SDS011;10106;51.332;12.336;2022-11-20T04:26:24;31.48;;;12.00;;
19887;SDS011;10106;51.332;12.336;2022-11-20T04:28:51;30.08;;;12.57;;
19887;SDS011;10106;51.332;12.336;2022-11-20T04:31:21;32.80;;;11.60;;
19887;SDS011;10106;51.332;12.336;2022-11-20T04:33:48;24.37;;;11.43;;
19887;SDS011;10106;51.332;12.336;2022-11-20T04:36:18;27.55;;;12.15;;
19887;SDS011;10106;51.332;12.336;2022-11-20T04:38:57;26.75;;;12.05;;
19887;SDS011;10106;51.332;12.336;2022-11-20T04:41:25;30.70;;;12.52;;
19887;SDS011;10106;51.332;12.336;2022-11-20T04:43:54;34.13;;;12.40;;
19887;SDS011;10106;51.332;12.336;2022-11-20T04:46:24;24.67;;;11.30;;
19887;SDS011;10106;51.332;12.336;2022-11-20T04:48:51;30.27;;;12.23;;
19887;SDS011;10106;51.332;12.336;2022-11-20T04:51:18;38.63;;;14.10;;
19887;SDS011;10106;51.332;12.336;2022-11-20T04:53:44;30.00;;;11.50;;
19887;SDS011;10106;51.332;12.336;2022-11-20T04:56:10;24.83;;;12.38;;
19887;SDS011;10106;51.332;12.336;2022-11-20T04:58:37;28.15;;;11.77;;
19887;SDS011;10106;51.332;12.336;2022-11-20T05:01:07;27.67;;;12.00;;
19887;SDS011;10106;51.332;12.336;2022-11-20T05:03:36;29.15;;;12.68;;
19887;SDS011;10106;51.332;12.336;2022-11-20T05:06:02;28.70;;;12.67;;
19887;SDS011;10106;51.332;12.336;2022-11-20T05:08:29;26.75;;;12.40;;
19887;SDS011;10106;51.332;12.336;2022-11-20T05:11:06;27.90;;;11.88;;
19887;SDS011;10106;51.332;12.336;2022-11-20T05:13:33;32.75;;;12.02;;
19887;SDS011;10106;51.332;12.336;2022-11-20T05:16:06;29.50;;;11.95;;
19887;SDS011;10106;51.332;12.336;2022-11-20T05:18:36;32.47;;;12.70;;
19887;SDS011;10106;51.332;12.336;2022-11-20T05:21:03;29.08;;;13.02;;
19887;SDS011;10106;51.332;12.336;2022-11-20T05:23:30;33.17;;;12.57;;
19887;SDS011;10106;51.332;12.336;2022-11-20T05:25:57;29.52;;;12.30;;
19887;SDS011;10106;51.332;12.336;2022-11-20T05:28:24;28.85;;;11.45;;
19887;SDS011;10106;51.332;12.336;2022-11-20T05:30:50;29.85;;;12.98;;
19887;SDS011;10106;51.332;12.336;2022-11-20T05:33:17;21.50;;;11.70;;
19887;SDS011;10106;51.332;12.336;2022-11-20T05:35:43;36.75;;;14.00;;
19887;SDS011;10106;51.332;12.336;2022-11-20T05:38:08;29.20;;;13.02;;
19887;SDS011;10106;51.332;12.336;2022-11-20T05:40:34;31.98;;;12.90;;
19887;SDS011;10106;51.332;12.336;2022-11-20T05:43:00;33.50;;;13.90;;
19887;SDS011;10106;51.332;12.336;2022-11-20T05:45:26;29.17;;;12.15;;
19887;SDS011;10106;51.332;12.336;2022-11-20T05:47:52;29.40;;;12.75;;
19887;SDS011;10106;51.332;12.336;2022-11-20T05:50:17;26.87;;;12.27;;
19887;SDS011;10106;51.332;12.336;2022-11-20T05:52:43;29.73;;;13.15;;
19887;SDS011;10106;51.332;12.336;2022-11-20T05:55:09;38.67;;;13.63;;
19887;SDS011;10106;51.332;12.336;2022-11-20T05:57:34;36.00;;;12.00;;
19887;SDS011;10106;51.332;12.336;2022-11-20T06:00:00;32.63;;;12.88;;
19887;SDS011;10106;51.332;12.336;2022-11-20T06:07:37;31.38;;;13.40;;
19887;SDS011;10106;51.332;12.336;2022-11-20T06:10:03;30.80;;;13.40;;
19887;SDS011;10106;51.332;12.336;2022-11-20T06:12:31;31.77;;;12.88;;
19887;SDS011;10106;51.332;12.336;2022-11-20T06:14:57;29.83;;;12.40;;
19887;SDS011;10106;51.332;12.336;2022-11-20T06:17:24;37.30;;;13.43;;
19887;SDS011;10106;51.332;12.336;2022-11-20T06:19:49;34.95;;;12.90;;
19887;SDS011;10106;51.332;12.336;2022-11-20T06:22:15;34.70;;;13.33;;
19887;SDS011;10106;51.332;12.336;2022-11-20T06:24:40;32.97;;;13.57;;
19887;SDS011;10106;51.332;12.336;2022-11-20T06:27:06;31.17;;;13.13;;
19887;SDS011;10106;51.332;12.336;2022-11-20T06:29:32;29.38;;;11.65;;
19887;SDS011;10106;51.332;12.336;2022-11-20T06:31:57;36.40;;;13.67;;
19887;SDS011;10106;51.332;12.336;2022-11-20T06:34:23;32.83;;;12.73;;
19887;SDS011;10106;51.332;12.336;2022-11-20T06:36:48;31.73;;;13.02;;
19887;SDS011;10106;51.332;12.336;2022-11-20T06:39:14;33.33;;;11.90;;
19887;SDS011;10106;51.332;12.336;2022-11-20T06:41:40;33.80;;;14.00;;
19887;SDS011;10106;51.332;12.336;2022-11-20T06:44:05;29.87;;;12.17;;
19887;SDS011;10106;51.332;12.336;2022-11-20T06:46:31;29.58;;;12.18;;
19887;SDS011;10106;51.332;12.336;2022-11-20T06:48:57;32.17;;;12.80;;
19887;SDS011;10106;51.332;12.336;2022-11-20T06:51:23;30.97;;;12.70;;
19887;SDS011;10106;51.332;12.336;2022-11-20T06:53:50;30.13;;;13.25;;
19887;SDS011;10106;51.332;12.336;2022-11-20T06:56:15;30.42;;;11.73;;
19887;SDS011;10106;51.332;12.336;2022-11-20T06:58:41;35.30;;;12.47;;
19887;SDS011;10106;51.332;12.336;2022-11-20T07:01:08;30.30;;;12.23;;
19887;SDS011;10106;51.332;12.336;2022-11-20T07:03:36;29.38;;;12.35;;
19887;SDS011;10106;51.332;12.336;2022-11-20T07:06:03;30.25;;;12.52;;
19887;SDS011;10106;51.332;12.336;2022-11-20T07:08:29;30.17;;;11.87;;
19887;SDS011;10106;51.332;12.336;2022-11-20T07:10:59;29.90;;;12.85;;
19887;SDS011;10106;51.332;12.336;2022-11-20T07:13:26;30.52;;;12.25;;
19887;SDS011;10106;51.332;12.336;2022-11-20T07:15:53;30.98;;;13.20;;
19887;SDS011;10106;51.332;12.336;2022-11-20T07:18:18;27.97;;;12.60;;
19887;SDS011;10106;51.332;12.336;2022-11-20T07:20:44;32.22;;;13.15;;
19887;SDS011;10106;51.332;12.336;2022-11-20T07:23:10;30.50;;;13.33;;
19887;SDS011;10106;51.332;12.336;2022-11-20T07:25:35;31.92;;;12.63;;
19887;SDS011;10106;51.332;12.336;2022-11-20T07:28:01;26.37;;;12.13;;
19887;SDS011;10106;51.332;12.336;2022-11-20T07:30:27;29.58;;;11.85;;
19887;SDS011;10106;51.332;12.336;2022-11-20T07:32:54;30.65;;;12.50;;
19887;SDS011;10106;51.332;12.336;2022-11-20T07:35:21;32.42;;;13.45;;
19887;SDS011;10106;51.332;12.336;2022-11-20T07:37:47;28.38;;;12.68;;
19887;SDS011;10106;51.332;12.336;2022-11-20T07:40:13;26.52;;;11.45;;
19887;SDS011;10106;51.332;12.336;2022-11-20T07:42:48;24.57;;;11.83;;
19887;SDS011;10106;51.332;12.336;2022-11-20T07:45:19;27.45;;;11.52;;
19887;SDS011;10106;51.332;12.336;2022-11-20T07:47:46;24.85;;;11.27;;
19887;SDS011;10106;51.332;12.336;2022-11-20T07:50:12;23.90;;;8.97;;
19887;SDS011;10106;51.332;12.336;2022-11-20T07:52:38;21.97;;;8.57;;
19887;SDS011;10106;51.332;12.336;2022-11-20T07:55:05;19.67;;;9.50;;
19887;SDS011;10106;51.332;12.336;2022-11-20T07:57:31;21.70;;;9.23;;
19887;SDS011;10106;51.332;12.336;2022-11-20T07:59:57;21.07;;;9.50;;
19887;SDS011;10106;51.332;12.336;2022-11-20T08:02:23;26.10;;;11.10;;
19887;SDS011;10106;51.332;12.336;2022-11-20T08:04:48;25.20;;;9.90;;
19887;SDS011;10106;51.332;12.336;2022-11-20T08:07:14;23.57;;;10.00;;
19887;SDS011;10106;51.332;12.336;2022-11-20T08:09:40;17.30;;;8.87;;
19887;SDS011;10106;51.332;12.336;2022-11-20T08:12:05;20.87;;;10.20;;
19887;SDS011;10106;51.332;12.336;2022-11-20T08:14:50;30.53;;;10.90;;
19887;SDS011;10106;51.332;12.336;2022-11-20T08:17:15;28.40;;;10.27;;
19887;SDS011;10106;51.332;12.336;2022-11-20T08:19:41;21.27;;;9.37;;
19887;SDS011;10106;51.332;12.336;2022-11-20T08:22:06;24.07;;;9.10;;
19887;SDS011;10106;51.332;12.336;2022-11-20T08:24:32;22.67;;;8.90;;
19887;SDS011;10106;51.332;12.336;2022-11-20T08:26:58;23.80;;;9.87;;
19887;SDS011;10106;51.332;12.336;2022-11-20T08:29:25;23.07;;;9.97;;
19887;SDS011;10106;51.332;12.336;2022-11-20T08:31:51;18.10;;;8.90;;
19887;SDS011;10106;51.332;12.336;2022-11-20T08:34:17;17.30;;;9.10;;
19887;SDS011;10106;51.332;12.336;2022-11-20T08:36:42;27.67;;;10.80;;
19887;SDS011;10106;51.332;12.336;2022-11-20T08:39:11;25.80;;;11.40;;
19887;SDS011;10106;51.332;12.336;2022-11-20T08:41:37;18.10;;;9.03;;
19887;SDS011;10106;51.332;12.336;2022-11-20T08:44:03;25.20;;;11.50;;
19887;SDS011;10106;51.332;12.336;2022-11-20T08:46:38;18.80;;;8.33;;
19887;SDS011;10106;51.332;12.336;2022-11-20T08:49:06;18.87;;;8.40;;
19887;SDS011;10106;51.332;12.336;2022-11-20T08:51:34;34.67;;;9.10;;
19887;SDS011;10106;51.332;12.336;2022-11-20T08:54:00;17.30;;;9.63;;
19887;SDS011;10106;51.332;12.336;2022-11-20T08:56:26;17.80;;;9.80;;
19887;SDS011;10106;51.332;12.336;2022-11-20T08:58:52;13.80;;;8.20;;
19887;SDS011;10106;51.332;12.336;2022-11-20T09:01:18;17.47;;;8.47;;
19887;SDS011;10106;51.332;12.336;2022-11-20T09:03:45;19.90;;;8.03;;
19887;SDS011;10106;51.332;12.336;2022-11-20T09:06:11;14.03;;;7.63;;
19887;SDS011;10106;51.332;12.336;2022-11-20T09:08:37;16.50;;;7.43;;
19887;SDS011;10106;51.332;12.336;2022-11-20T09:11:03;18.73;;;8.03;;
19887;SDS011;10106;51.332;12.336;2022-11-20T09:13:29;12.57;;;7.30;;
19887;SDS011;10106;51.332;12.336;2022-11-20T09:15:57;16.97;;;8.00;;
19887;SDS011;10106;51.332;12.336;2022-11-20T09:18:24;14.50;;;6.83;;
19887;SDS011;10106;51.332;12.336;2022-11-20T09:23:17;16.90;;;8.50;;
19887;SDS011;10106;51.332;12.336;2022-11-20T09:25:43;17.73;;;6.73;;
19887;SDS011;10106;51.332;12.336;2022-11-20T09:28:09;17.93;;;7.33;;
19887;SDS011;10106;51.332;12.336;2022-11-20T09:30:34;12.90;;;5.70;;
19887;SDS011;10106;51.332;12.336;2022-11-20T09:33:00;15.60;;;6.63;;
19887;SDS011;10106;51.332;12.336;2022-11-20T09:35:26;17.77;;;7.40;;
19887;SDS011;10106;51.332;12.336;2022-11-20T09:37:52;13.57;;;6.20;;
19887;SDS011;10106;51.332;12.336;2022-11-20T09:40:22;9.43;;;5.17;;
19887;SDS011;10106;51.332;12.336;2022-11-20T09:45:28;14.53;;;6.60;;
19887;SDS011;10106;51.332;12.336;2022-11-20T09:48:16;13.00;;;6.40;;
19887;SDS011;10106;51.332;12.336;2022-11-20T09:53:52;18.37;;;7.07;;
19887;SDS011;10106;51.332;12.336;2022-11-20T09:56:20;14.83;;;6.00;;
19887;SDS011;10106;51.332;12.336;2022-11-20T09:58:50;11.67;;;5.90;;
19887;SDS011;10106;51.332;12.336;2022-11-20T10:01:23;12.67;;;6.77;;
19887;SDS011;10106;51.332;12.336;2022-11-20T10:06:32;17.40;;;5.83;;
19887;SDS011;10106;51.332;12.336;2022-11-20T10:14:43;13.43;;;6.57;;
19887;SDS011;10106;51.332;12.336;2022-11-20T10:25:24;11.83;;;6.80;;
19887;SDS011;10106;51.332;12.336;2022-11-20T10:28:30;16.13;;;7.73;;
19887;SDS011;10106;51.332;12.336;2022-11-20T10:31:09;12.67;;;5.70;;
19887;SDS011;10106;51.332;12.336;2022-11-20T10:33:51;12.37;;;6.30;;
19887;SDS011;10106;51.332;12.336;2022-11-20T10:36:21;14.60;;;6.23;;
19887;SDS011;10106;51.332;12.336;2022-11-20T10:38:54;19.83;;;7.77;;
19887;SDS011;10106;51.332;12.336;2022-11-20T10:41:41;13.50;;;6.07;;
19887;SDS011;10106;51.332;12.336;2022-11-20T10:44:20;23.77;;;7.70;;
19887;SDS011;10106;51.332;12.336;2022-11-20T10:47:16;12.03;;;7.57;;
19887;SDS011;10106;51.332;12.336;2022-11-20T10:49:44;15.47;;;7.27;;
19887;SDS011;10106;51.332;12.336;2022-11-20T11:00:15;21.63;;;5.33;;
19887;SDS011;10106;51.332;12.336;2022-11-20T11:02:52;16.80;;;6.87;;
19887;SDS011;10106;51.332;12.336;2022-11-20T11:05:31;13.67;;;7.70;;
19887;SDS011;10106;51.332;12.336;2022-11-20T11:07:59;14.73;;;5.80;;
19887;SDS011;10106;51.332;12.336;2022-11-20T11:12:57;12.40;;;5.43;;
19887;SDS011;10106;51.332;12.336;2022-11-20T11:17:53;7.70;;;4.40;;
19887;SDS011;10106;51.332;12.336;2022-11-20T11:20:20;11.30;;;4.93;;
19887;SDS011;10106;51.332;12.336;2022-11-20T11:22:57;15.40;;;4.17;;
19887;SDS011;10106;51.332;12.336;2022-11-20T11:28:00;8.63;;;4.23;;
19887;SDS011;10106;51.332;12.336;2022-11-20T11:30:44;10.20;;;4.63;;
19887;SDS011;10106;51.332;12.336;2022-11-20T11:33:20;6.73;;;4.47;;
19887;SDS011;10106;51.332;12.336;2022-11-20T11:36:16;8.00;;;5.10;;
19887;SDS011;10106;51.332;12.336;2022-11-20T11:38:48;14.63;;;5.27;;
19887;SDS011;10106;51.332;12.336;2022-11-20T11:41:22;7.70;;;4.20;;
19887;SDS011;10106;51.332;12.336;2022-11-20T11:43:52;10.80;;;5.13;;
19887;SDS011;10106;51.332;12.336;2022-11-20T11:46:53;10.10;;;4.20;;
19887;SDS011;10106;51.332;12.336;2022-11-20T11:49:21;10.90;;;5.20;;
19887;SDS011;10106;51.332;12.336;2022-11-20T11:57:01;5.60;;;4.47;;
19887;SDS011;10106;51.332;12.336;2022-11-20T12:07:52;11.47;;;5.60;;
19887;SDS011;10106;51.332;12.336;2022-11-20T12:16:07;13.80;;;4.87;;
19887;SDS011;10106;51.332;12.336;2022-11-20T12:18:40;8.90;;;3.30;;
19887;SDS011;10106;51.332;12.336;2022-11-20T12:34:52;9.87;;;4.93;;
19887;SDS011;10106;51.332;12.336;2022-11-20T12:43:17;10.80;;;5.17;;
19887;SDS011;10106;51.332;12.336;2022-11-20T12:49:12;9.37;;;4.10;;
19887;SDS011;10106;51.332;12.336;2022-11-20T12:51:48;11.43;;;5.40;;
19887;SDS011;10106;51.332;12.336;2022-11-20T13:02:27;10.87;;;6.00;;
19887;SDS011;10106;51.332;12.336;2022-11-20T13:07:47;12.80;;;3.97;;
19887;SDS011;10106;51.332;12.336;2022-11-20T13:13:23;19.70;;;6.97;;
19887;SDS011;10106;51.332;12.336;2022-11-20T13:16:00;19.30;;;6.47;;
19887;SDS011;10106;51.332;12.336;2022-11-20T13:18:39;15.43;;;5.87;;
19887;SDS011;10106;51.332;12.336;2022-11-20T13:21:14;18.67;;;6.63;;
19887;SDS011;10106;51.332;12.336;2022-11-20T13:23:41;20.03;;;6.30;;
19887;SDS011;10106;51.332;12.336;2022-11-20T13:26:20;11.63;;;4.57;;
19887;SDS011;10106;51.332;12.336;2022-11-20T13:28:59;10.47;;;4.23;;
19887;SDS011;10106;51.332;12.336;2022-11-20T13:31:34;8.43;;;4.80;;
19887;SDS011;10106;51.332;12.336;2022-11-20T13:34:03;12.37;;;4.83;;
19887;SDS011;10106;51.332;12.336;2022-11-20T13:36:30;13.30;;;5.57;;
19887;SDS011;10106;51.332;12.336;2022-11-20T13:38:57;8.60;;;4.57;;
19887;SDS011;10106;51.332;12.336;2022-11-20T13:43:58;5.27;;;3.30;;
19887;SDS011;10106;51.332;12.336;2022-11-20T13:46:45;7.30;;;5.00;;
19887;SDS011;10106;51.332;12.336;2022-11-20T13:49:20;13.97;;;6.00;;
19887;SDS011;10106;51.332;12.336;2022-11-20T13:55:42;10.27;;;5.40;;
19887;SDS011;10106;51.332;12.336;2022-11-20T14:01:10;7.13;;;3.50;;
19887;SDS011;10106;51.332;12.336;2022-11-20T14:03:50;7.87;;;4.03;;
19887;SDS011;10106;51.332;12.336;2022-11-20T14:08:49;10.13;;;4.37;;
19887;SDS011;10106;51.332;12.336;2022-11-20T14:11:16;8.60;;;4.40;;
19887;SDS011;10106;51.332;12.336;2022-11-20T14:14:02;4.10;;;2.70;;
19887;SDS011;10106;51.332;12.336;2022-11-20T14:16:38;13.97;;;4.10;;
19887;SDS011;10106;51.332;12.336;2022-11-20T14:21:45;8.67;;;4.23;;
19887;SDS011;10106;51.332;12.336;2022-11-20T14:24:18;10.70;;;4.70;;
19887;SDS011;10106;51.332;12.336;2022-11-20T14:26:45;9.03;;;6.30;;
19887;SDS011;10106;51.332;12.336;2022-11-20T14:29:16;9.33;;;4.33;;
19887;SDS011;10106;51.332;12.336;2022-11-20T14:31:44;11.57;;;5.03;;
19887;SDS011;10106;51.332;12.336;2022-11-20T14:34:15;6.90;;;3.63;;
19887;SDS011;10106;51.332;12.336;2022-11-20T14:36:43;10.80;;;4.77;;
19887;SDS011;10106;51.332;12.336;2022-11-20T14:39:55;9.60;;;5.37;;
19887;SDS011;10106;51.332;12.336;2022-11-20T14:41:57;12.90;;;5.43;;
19887;SDS011;10106;51.332;12.336;2022-11-20T14:44:25;11.07;;;4.90;;
19887;SDS011;10106;51.332;12.336;2022-11-20T14:46:54;12.17;;;5.80;;
19887;SDS011;10106;51.332;12.336;2022-11-20T14:49:21;16.17;;;7.20;;
19887;SDS011;10106;51.332;12.336;2022-11-20T14:51:57;11.63;;;4.53;;
19887;SDS011;10106;51.332;12.336;2022-11-20T14:54:24;15.33;;;6.50;;
19887;SDS011;10106;51.332;12.336;2022-11-20T14:56:58;8.50;;;4.60;;
19887;SDS011;10106;51.332;12.336;2022-11-20T14:59:27;12.43;;;4.67;;
19887;SDS011;10106;51.332;12.336;2022-11-20T15:02:05;17.33;;;5.53;;
19887;SDS011;10106;51.332;12.336;2022-11-20T15:04:44;8.07;;;4.70;;
19887;SDS011;10106;51.332;12.336;2022-11-20T15:07:25;12.07;;;5.13;;
19887;SDS011;10106;51.332;12.336;2022-11-20T15:12:48;10.73;;;4.97;;
19887;SDS011;10106;51.332;12.336;2022-11-20T15:15:15;8.37;;;5.20;;
19887;SDS011;10106;51.332;12.336;2022-11-20T15:17:56;10.17;;;4.60;;
19887;SDS011;10106;51.332;12.336;2022-11-20T15:20:24;19.43;;;6.67;;
19887;SDS011;10106;51.332;12.336;2022-11-20T15:22:52;11.47;;;4.70;;
19887;SDS011;10106;51.332;12.336;2022-11-20T15:25:18;12.57;;;4.80;;
19887;SDS011;10106;51.332;12.336;2022-11-20T15:27:44;13.40;;;5.13;;
19887;SDS011;10106;51.332;12.336;2022-11-20T15:30:13;10.20;;;4.70;;
19887;SDS011;10106;51.332;12.336;2022-11-20T15:32:43;9.93;;;4.80;;
19887;SDS011;10106;51.332;12.336;2022-11-20T15:35:11;12.30;;;4.40;;
19887;SDS011;10106;51.332;12.336;2022-11-20T15:37:37;8.60;;;4.77;;
19887;SDS011;10106;51.332;12.336;2022-11-20T15:40:04;13.17;;;5.63;;
19887;SDS011;10106;51.332;12.336;2022-11-20T15:42:30;11.63;;;5.97;;
19887;SDS011;10106;51.332;12.336;2022-11-20T15:44:56;11.97;;;6.93;;
19887;SDS011;10106;51.332;12.336;2022-11-20T15:47:25;7.00;;;4.93;;
19887;SDS011;10106;51.332;12.336;2022-11-20T15:49:58;13.87;;;5.63;;
19887;SDS011;10106;51.332;12.336;2022-11-20T15:52:24;9.73;;;4.20;;
19887;SDS011;10106;51.332;12.336;2022-11-20T15:54:50;8.10;;;4.73;;
19887;SDS011;10106;51.332;12.336;2022-11-20T15:57:16;18.67;;;6.20;;
19887;SDS011;10106;51.332;12.336;2022-11-20T15:59:41;17.73;;;6.00;;
19887;SDS011;10106;51.332;12.336;2022-11-20T16:02:11;17.93;;;6.27;;
19887;SDS011;10106;51.332;12.336;2022-11-20T16:04:37;19.17;;;6.43;;
19887;SDS011;10106;51.332;12.336;2022-11-20T16:07:03;9.50;;;4.50;;
19887;SDS011;10106;51.332;12.336;2022-11-20T16:09:29;14.90;;;7.78;;
19887;SDS011;10106;51.332;12.336;2022-11-20T16:11:54;13.33;;;6.47;;
19887;SDS011;10106;51.332;12.336;2022-11-20T16:14:20;20.50;;;6.30;;
19887;SDS011;10106;51.332;12.336;2022-11-20T16:17:04;16.73;;;7.43;;
19887;SDS011;10106;51.332;12.336;2022-11-20T16:19:30;10.40;;;4.90;;
19887;SDS011;10106;51.332;12.336;2022-11-20T16:21:59;7.87;;;5.10;;
19887;SDS011;10106;51.332;12.336;2022-11-20T16:24:29;6.70;;;5.13;;
19887;SDS011;10106;51.332;12.336;2022-11-20T16:26:55;16.83;;;6.03;;
19887;SDS011;10106;51.332;12.336;2022-11-20T16:29:21;23.57;;;6.97;;
19887;SDS011;10106;51.332;12.336;2022-11-20T16:31:47;14.30;;;6.10;;
19887;SDS011;10106;51.332;12.336;2022-11-20T16:34:15;11.50;;;5.73;;
19887;SDS011;10106;51.332;12.336;2022-11-20T16:36:41;21.07;;;6.90;;